Time;durP1;ratioP1;P1;durP2;ratioP2;P2;SDS_P1;SDS_P2;PMS_P1;PMS_P2;Temp;Humidity;BMP_temperature;BMP_pressure;BME280_temperature;BME280_humidity;BME280_pressure;Samples;Min_cycle;Max_cycle;Signal;HPM_P1;HPM_P2
2021/11/10 00:01:52;;;;;;;12.68;6.35;;;5.10;99.90;;;;;;5055943;28;20040;-76
2021/11/10 00:04:21;;;;;;;13.13;6.65;;;5.10;99.90;;;;;;5037708;28;20033;-76
2021/11/10 00:06:48;;;;;;;9.98;6.97;;;5.10;99.90;;;;;;5048672;28;20096;-76
2021/11/10 00:09:15;;;;;;;11.63;6.97;;;5.10;99.90;;;;;;5055454;28;20581;-76
2021/11/10 00:11:42;;;;;;;17.75;6.93;;;5.00;99.90;;;;;;5049878;28;20354;-76
2021/11/10 00:14:08;;;;;;;15.00;8.02;;;5.00;99.90;;;;;;5049697;28;20048;-76
2021/11/10 00:16:35;;;;;;;13.32;7.97;;;5.00;99.90;;;;;;5065829;28;20519;-75
2021/11/10 00:19:02;;;;;;;16.42;7.85;;;4.90;99.90;;;;;;5066283;28;20407;-76
2021/11/10 00:21:29;;;;;;;21.67;11.05;;;4.90;99.90;;;;;;5066517;28;20349;-76
2021/11/10 00:23:57;;;;;;;15.05;9.48;;;4.90;99.90;;;;;;5032738;28;20047;-76
2021/11/10 00:26:24;;;;;;;17.95;8.40;;;4.90;99.90;;;;;;5045108;28;20463;-76
2021/11/10 00:28:51;;;;;;;12.68;7.72;;;4.90;99.90;;;;;;5032537;28;20024;-76
2021/11/10 00:31:19;;;;;;;14.32;7.22;;;4.80;99.90;;;;;;5024610;28;20029;-76
2021/11/10 00:33:46;;;;;;;12.57;6.50;;;4.80;99.90;;;;;;5041228;28;20380;-76
2021/11/10 00:36:14;;;;;;;13.15;6.80;;;4.90;99.90;;;;;;5041527;28;20044;-76
2021/11/10 00:38:41;;;;;;;12.38;5.85;;;4.80;99.90;;;;;;5049137;28;20036;-76
2021/11/10 00:41:08;;;;;;;12.27;5.40;;;4.80;99.90;;;;;;5050061;28;20044;-76
2021/11/10 00:43:34;;;;;;;9.93;5.53;;;4.80;99.90;;;;;;5017027;28;20044;-76
2021/11/10 00:46:01;;;;;;;9.50;5.82;;;4.80;99.90;;;;;;5052801;28;20029;-76
2021/11/10 00:48:28;;;;;;;9.82;5.53;;;4.80;99.90;;;;;;5053759;28;20058;-76
2021/11/10 00:50:55;;;;;;;7.82;4.75;;;4.80;99.90;;;;;;5069958;28;20036;-76
2021/11/10 00:53:21;;;;;;;8.73;4.53;;;4.70;99.90;;;;;;5055938;28;20052;-76
2021/11/10 00:55:48;;;;;;;11.35;5.88;;;4.70;99.90;;;;;;5030047;28;20044;-76
2021/11/10 00:58:15;;;;;;;11.15;5.05;;;4.70;99.90;;;;;;5033558;28;20045;-76
2021/11/10 01:00:42;;;;;;;12.55;4.90;;;4.70;99.90;;;;;;5017982;28;20040;-76
2021/11/10 01:03:08;;;;;;;8.73;4.13;;;4.70;99.90;;;;;;5050508;28;20051;-76
2021/11/10 01:05:35;;;;;;;9.57;4.38;;;4.70;99.90;;;;;;4998386;28;20041;-76
2021/11/10 01:08:03;;;;;;;9.88;4.55;;;4.70;99.90;;;;;;5051216;28;20032;-76
2021/11/10 01:10:31;;;;;;;7.20;4.05;;;4.70;99.90;;;;;;5035217;28;20035;-77
2021/11/10 01:12:58;;;;;;;8.75;4.43;;;4.70;99.90;;;;;;5035767;28;20043;-76
2021/11/10 01:15:26;;;;;;;8.18;4.28;;;4.70;99.90;;;;;;5039847;28;20051;-76
2021/11/10 01:17:53;;;;;;;8.52;4.43;;;4.70;99.90;;;;;;5054523;28;20037;-76
2021/11/10 01:20:21;;;;;;;9.85;5.00;;;4.60;99.90;;;;;;5019079;28;20035;-76
2021/11/10 01:22:49;;;;;;;8.32;4.93;;;4.60;99.90;;;;;;5035811;28;20063;-76
2021/11/10 01:25:16;;;;;;;8.85;4.90;;;4.70;99.90;;;;;;5015943;28;20044;-76
2021/11/10 01:27:43;;;;;;;10.48;5.18;;;4.60;99.90;;;;;;5058039;28;20028;-76
2021/11/10 01:30:11;;;;;;;10.68;5.63;;;4.60;99.90;;;;;;5068973;28;21681;-76
2021/11/10 01:32:38;;;;;;;12.70;5.57;;;4.60;99.90;;;;;;5068994;28;20462;-77
2021/11/10 01:35:08;;;;;;;8.93;5.15;;;4.60;99.90;;;;;;5033382;28;20047;-75
2021/11/10 01:37:35;;;;;;;10.75;5.13;;;4.50;99.90;;;;;;5069780;28;20043;-77
2021/11/10 01:40:04;;;;;;;7.45;5.18;;;4.50;99.90;;;;;;5027863;28;20055;-76
2021/11/10 01:42:35;;;;;;;9.77;5.22;;;4.40;99.90;;;;;;5030159;28;20040;-76
2021/11/10 01:45:03;;;;;;;9.20;5.03;;;4.40;99.90;;;;;;5041128;28;20033;-76
2021/11/10 01:47:32;;;;;;;9.13;5.75;;;4.40;99.90;;;;;;5032939;28;20028;-77
2021/11/10 01:50:02;;;;;;;9.87;5.23;;;4.40;99.90;;;;;;5035186;28;20103;-76
2021/11/10 01:52:29;;;;;;;11.50;5.68;;;4.40;99.90;;;;;;5069337;28;20039;-76
2021/11/10 01:54:55;;;;;;;15.25;7.78;;;4.30;99.90;;;;;;5040984;28;20040;-78
2021/11/10 01:57:26;;;;;;;14.02;8.20;;;4.30;99.90;;;;;;5067202;28;20032;-76
2021/11/10 02:00:10;;;;;;;12.38;6.65;;;4.30;99.90;;;;;;5055609;28;20039;-76
2021/11/10 02:02:56;;;;;;;9.53;6.03;;;4.30;99.90;;;;;;5050011;28;20059;-76
2021/11/10 02:05:40;;;;;;;9.30;5.50;;;4.20;99.90;;;;;;5038434;28;20040;-76
2021/11/10 02:08:16;;;;;;;9.70;5.43;;;4.20;99.90;;;;;;5051574;28;20028;-76
2021/11/10 02:10:45;;;;;;;9.80;5.82;;;4.10;99.90;;;;;;5036227;28;20092;-76
2021/11/10 02:13:15;;;;;;;;;;;4.10;99.90;;;;;;5036438;28;20036;-76
2021/11/10 02:15:41;;;;;;;9.48;5.35;;;4.10;99.90;;;;;;5063325;28;19917;-76
2021/11/10 02:18:09;;;;;;;8.82;4.30;;;4.10;99.90;;;;;;5038602;28;20037;-76
2021/11/10 02:20:49;;;;;;;8.67;5.70;;;4.10;99.90;;;;;;5017381;28;20399;-76
2021/11/10 02:23:19;;;;;;;7.67;4.27;;;4.00;99.90;;;;;;5020256;28;20047;-76
2021/11/10 02:25:46;;;;;;;9.95;5.15;;;4.00;99.90;;;;;;5032497;28;20025;-76
2021/11/10 02:28:12;;;;;;;11.32;5.90;;;4.00;99.90;;;;;;5020606;28;20037;-76
2021/11/10 02:30:39;;;;;;;8.83;4.50;;;4.00;99.90;;;;;;5015256;28;20392;-76
2021/11/10 02:33:05;;;;;;;8.77;4.90;;;4.00;99.90;;;;;;5005688;28;20116;-76
2021/11/10 02:35:33;;;;;;;12.98;5.72;;;4.00;99.90;;;;;;4992839;28;20054;-76
2021/11/10 02:38:05;;;;;;;11.07;5.22;;;4.00;99.90;;;;;;5038098;28;20051;-76
2021/11/10 02:40:32;;;;;;;7.97;4.80;;;4.00;99.90;;;;;;5019705;28;20041;-76
2021/11/10 02:42:59;;;;;;;14.50;5.90;;;4.00;99.90;;;;;;5021151;28;20052;-76
2021/11/10 02:45:29;;;;;;;8.68;5.32;;;4.00;99.90;;;;;;5046578;28;20030;-76
2021/11/10 02:47:56;;;;;;;12.67;5.60;;;4.00;99.90;;;;;;5004556;28;20025;-76
2021/11/10 02:50:28;;;;;;;12.63;5.93;;;3.90;99.90;;;;;;5033035;28;20036;-76
2021/11/10 02:52:54;;;;;;;11.45;6.15;;;3.90;99.90;;;;;;5052314;28;20547;-74
2021/11/10 02:55:21;;;;;;;15.40;6.18;;;3.90;99.90;;;;;;5037108;28;20037;-75
2021/11/10 02:57:47;;;;;;;9.40;5.13;;;3.90;99.90;;;;;;5036183;28;20036;-74
2021/11/10 03:00:15;;;;;;;10.57;5.05;;;3.90;99.90;;;;;;5040677;28;20033;-74
2021/11/10 03:02:44;;;;;;;11.23;4.77;;;3.90;99.90;;;;;;5027019;28;20037;-73
2021/11/10 03:05:11;;;;;;;8.90;4.30;;;3.90;99.90;;;;;;5034570;28;20365;-75
2021/11/10 03:07:38;;;;;;;8.75;4.82;;;3.90;99.90;;;;;;5019253;28;20029;-75
2021/11/10 03:10:05;;;;;;;10.25;5.78;;;3.90;99.90;;;;;;5022855;28;20047;-75
2021/11/10 03:12:32;;;;;;;10.67;4.63;;;3.80;99.90;;;;;;5031721;28;20270;-75
2021/11/10 03:15:01;;;;;;;10.53;5.87;;;3.80;99.90;;;;;;5037026;28;20051;-75
2021/11/10 03:17:27;;;;;;;9.17;5.23;;;3.80;99.90;;;;;;5062636;28;20103;-75
2021/11/10 03:19:57;;;;;;;9.75;5.25;;;3.80;99.90;;;;;;5037042;28;20411;-75
2021/11/10 03:22:24;;;;;;;10.23;6.00;;;3.80;99.90;;;;;;5030568;28;20064;-75
2021/11/10 03:24:52;;;;;;;10.40;5.50;;;3.80;99.90;;;;;;5032987;28;20048;-74
2021/11/10 03:27:25;;;;;;;9.45;5.40;;;3.80;99.90;;;;;;5016810;28;20037;-75
2021/11/10 03:29:52;;;;;;;11.57;5.40;;;3.80;99.90;;;;;;5049600;28;20035;-75
2021/11/10 03:32:23;;;;;;;8.35;4.88;;;3.80;99.90;;;;;;5031300;28;20040;-74
2021/11/10 03:34:52;;;;;;;10.43;5.57;;;3.70;99.90;;;;;;5047165;28;20041;-75
2021/11/10 03:37:23;;;;;;;12.23;5.27;;;3.80;99.90;;;;;;5036888;28;20036;-75
2021/11/10 03:39:50;;;;;;;12.10;5.23;;;3.80;99.90;;;;;;5003688;28;20060;-75
2021/11/10 03:42:17;;;;;;;8.38;4.72;;;3.70;99.90;;;;;;5046907;28;20036;-76
2021/11/10 03:44:44;;;;;;;10.40;5.27;;;3.70;99.90;;;;;;5044987;28;20051;-76
2021/11/10 03:47:11;;;;;;;11.57;5.72;;;3.70;99.90;;;;;;5028287;28;20036;-76
2021/11/10 03:49:38;;;;;;;9.33;4.60;;;3.70;99.90;;;;;;5029537;28;20503;-77
2021/11/10 03:52:06;;;;;;;8.80;4.97;;;3.70;99.90;;;;;;5030063;28;20041;-76
2021/11/10 03:54:32;;;;;;;11.33;6.17;;;3.60;99.90;;;;;;5044338;28;20532;-77
2021/11/10 03:56:59;;;;;;;13.35;6.63;;;3.60;99.90;;;;;;5047601;28;20040;-76
2021/11/10 03:59:26;;;;;;;12.70;6.40;;;3.70;99.90;;;;;;5065914;28;20043;-76
2021/11/10 04:01:53;;;;;;;10.10;5.80;;;3.60;99.90;;;;;;5049847;28;20048;-77
2021/11/10 04:04:19;;;;;;;12.68;6.47;;;3.60;99.90;;;;;;5033973;28;20060;-77
2021/11/10 04:06:46;;;;;;;11.17;6.30;;;3.60;99.90;;;;;;5027296;28;20033;-76
2021/11/10 04:09:13;;;;;;;10.27;6.17;;;3.60;99.90;;;;;;5029556;28;20475;-77
2021/11/10 04:11:40;;;;;;;10.00;5.20;;;3.50;99.90;;;;;;5030179;28;20036;-76
2021/11/10 04:14:11;;;;;;;8.93;5.40;;;3.50;99.90;;;;;;5030732;28;20045;-77
2021/11/10 04:16:40;;;;;;;11.73;6.22;;;3.50;99.90;;;;;;5021923;28;20056;-76
2021/11/10 04:19:07;;;;;;;9.73;5.47;;;3.60;99.90;;;;;;5030066;28;20123;-76
2021/11/10 04:21:33;;;;;;;10.07;5.78;;;3.50;99.90;;;;;;5023084;28;20029;-77
2021/11/10 04:24:04;;;;;;;12.38;6.07;;;3.60;99.90;;;;;;5045852;28;20048;-76
2021/11/10 04:26:36;;;;;;;11.70;5.37;;;3.50;99.90;;;;;;5046830;28;20084;-76
2021/11/10 04:29:09;;;;;;;9.60;6.38;;;3.50;99.90;;;;;;5065115;28;20033;-76
2021/11/10 04:31:36;;;;;;;11.83;5.47;;;3.50;99.90;;;;;;5048799;28;20036;-76
2021/11/10 04:34:05;;;;;;;10.10;4.70;;;3.50;99.90;;;;;;5047060;28;21055;-76
2021/11/10 04:36:33;;;;;;;11.80;6.05;;;3.50;99.90;;;;;;5052294;28;20044;-76
2021/11/10 04:39:01;;;;;;;9.90;5.78;;;3.50;99.90;;;;;;5020514;28;20043;-77
2021/11/10 04:41:28;;;;;;;12.27;5.70;;;3.50;99.90;;;;;;5049852;28;20055;-77
2021/11/10 04:43:57;;;;;;;9.80;5.20;;;3.50;99.90;;;;;;5028265;28;20048;-76
2021/11/10 04:46:31;;;;;;;10.53;5.50;;;3.40;99.90;;;;;;5033607;28;20040;-77
2021/11/10 04:48:59;;;;;;;;;;;3.50;99.90;;;;;;5033555;28;20268;-77
2021/11/10 04:51:27;;;;;;;11.47;5.07;;;3.50;99.90;;;;;;5069857;28;19919;-76
2021/11/10 04:53:54;;;;;;;9.43;4.93;;;3.50;99.90;;;;;;5034421;28;20051;-77
2021/11/10 04:56:21;;;;;;;9.87;6.23;;;3.50;99.90;;;;;;5044134;28;20108;-77
2021/11/10 04:58:52;;;;;;;12.73;6.60;;;3.50;99.90;;;;;;5018493;28;20120;-77
2021/11/10 05:01:25;;;;;;;10.50;6.13;;;3.50;99.90;;;;;;5070916;28;20024;-76
2021/11/10 05:03:54;;;;;;;8.67;5.57;;;3.50;99.90;;;;;;5034428;28;20045;-77
2021/11/10 05:06:22;;;;;;;7.77;5.47;;;3.50;99.90;;;;;;5048995;28;20033;-76
2021/11/10 05:08:51;;;;;;;9.57;5.30;;;3.40;99.90;;;;;;5032641;28;20393;-77
2021/11/10 05:11:20;;;;;;;10.63;6.03;;;3.40;99.90;;;;;;5034538;28;20033;-77
2021/11/10 05:13:47;;;;;;;10.20;6.13;;;3.40;99.90;;;;;;5033055;28;20032;-76
2021/11/10 05:16:13;;;;;;;9.33;5.53;;;3.40;99.90;;;;;;5061072;28;20514;-76
2021/11/10 05:18:42;;;;;;;10.57;6.30;;;3.40;99.90;;;;;;5031337;28;20068;-76
2021/11/10 05:21:09;;;;;;;11.00;6.20;;;3.30;99.90;;;;;;5049209;28;21163;-77
2021/11/10 05:23:35;;;;;;;13.23;6.17;;;3.40;99.90;;;;;;5028989;28;20147;-77
2021/11/10 05:26:02;;;;;;;12.47;5.73;;;3.30;99.90;;;;;;5063148;28;20499;-76
2021/11/10 05:28:29;;;;;;;13.50;6.77;;;3.30;99.90;;;;;;5021984;28;20703;-76
2021/11/10 05:30:56;;;;;;;10.68;5.68;;;3.30;99.90;;;;;;5052450;28;20056;-76
2021/11/10 05:33:22;;;;;;;10.37;5.87;;;3.30;99.90;;;;;;5055166;28;20029;-76
2021/11/10 05:35:48;;;;;;;8.30;4.97;;;3.20;99.90;;;;;;5066824;28;20400;-76
2021/11/10 05:38:15;;;;;;;13.30;6.43;;;3.20;99.90;;;;;;5050392;28;20043;-76
2021/11/10 05:40:41;;;;;;;11.33;5.90;;;3.20;99.90;;;;;;5067858;28;20032;-76
2021/11/10 05:43:08;;;;;;;11.70;5.90;;;3.20;99.90;;;;;;5072021;28;20045;-75
2021/11/10 05:45:34;;;;;;;9.73;6.17;;;3.20;99.90;;;;;;5016056;28;20045;-76
2021/11/10 05:48:01;;;;;;;9.63;5.83;;;3.10;99.90;;;;;;5033525;28;20033;-76
2021/11/10 05:50:27;;;;;;;12.63;7.77;;;3.10;99.90;;;;;;5033699;28;20048;-76
2021/11/10 05:52:54;;;;;;;13.80;7.53;;;3.10;99.90;;;;;;5051885;28;20396;-76
2021/11/10 05:55:24;;;;;;;13.43;7.80;;;3.10;99.90;;;;;;5067110;28;20048;-76
2021/11/10 05:57:51;;;;;;;11.37;7.37;;;3.10;99.90;;;;;;5044338;28;20032;-76
2021/11/10 06:00:18;;;;;;;14.10;7.30;;;3.10;99.90;;;;;;5050354;28;20045;-76
2021/11/10 06:02:45;;;;;;;11.17;7.40;;;3.10;99.90;;;;;;5068692;28;20044;-76
2021/11/10 06:05:15;;;;;;;10.15;5.90;;;3.10;99.90;;;;;;5031695;28;20492;-75
2021/11/10 06:07:44;;;;;;;12.53;6.23;;;3.10;99.90;;;;;;5049540;28;20370;-76
2021/11/10 06:10:15;;;;;;;10.57;6.73;;;3.10;99.90;;;;;;5057423;28;20380;-76
2021/11/10 06:12:42;;;;;;;12.87;7.80;;;3.10;99.90;;;;;;5050542;28;20025;-76
2021/11/10 06:15:09;;;;;;;12.13;6.37;;;3.00;99.90;;;;;;5069563;28;20040;-76
2021/11/10 06:17:35;;;;;;;12.53;6.50;;;3.00;99.90;;;;;;5048675;28;20056;-76
2021/11/10 06:20:03;;;;;;;10.47;5.97;;;3.00;99.90;;;;;;5007168;28;20033;-73
2021/11/10 06:22:30;;;;;;;10.73;6.37;;;3.00;99.90;;;;;;5048934;28;20059;-74
2021/11/10 06:24:56;;;;;;;11.90;6.87;;;3.00;99.90;;;;;;5033891;28;20071;-76
2021/11/10 06:27:23;;;;;;;16.27;8.60;;;3.00;99.90;;;;;;5050892;28;20494;-76
2021/11/10 06:29:50;;;;;;;17.00;9.75;;;3.00;99.90;;;;;;5070930;28;20021;-75
2021/11/10 06:32:16;;;;;;;18.00;9.90;;;3.00;99.90;;;;;;5031161;28;20044;-75
2021/11/10 06:34:43;;;;;;;15.67;9.27;;;3.00;99.90;;;;;;5061256;28;20024;-76
2021/11/10 06:37:09;;;;;;;17.47;9.83;;;2.90;99.90;;;;;;5066512;28;20047;-76
2021/11/10 06:39:36;;;;;;;17.83;9.73;;;2.90;99.90;;;;;;5030269;28;20038;-76
2021/11/10 06:42:04;;;;;;;16.63;10.27;;;3.00;99.90;;;;;;5059143;28;20041;-76
2021/11/10 06:44:30;;;;;;;12.97;8.17;;;3.00;99.90;;;;;;5030419;28;20052;-76
2021/11/10 06:46:59;;;;;;;20.97;10.20;;;3.00;99.90;;;;;;5050557;28;20032;-75
2021/11/10 06:49:27;;;;;;;16.07;8.63;;;3.00;99.90;;;;;;5068927;28;20498;-76
2021/11/10 06:51:54;;;;;;;16.53;9.00;;;3.00;99.90;;;;;;5048146;28;20033;-76
2021/11/10 06:54:21;;;;;;;13.10;7.20;;;2.90;99.90;;;;;;5027086;28;20037;-76
2021/11/10 06:56:49;;;;;;;12.77;6.87;;;3.00;99.90;;;;;;5040638;28;20037;-76
2021/11/10 06:59:18;;;;;;;13.40;7.10;;;3.00;99.90;;;;;;5031941;28;20049;-76
2021/11/10 07:01:45;;;;;;;20.37;8.60;;;3.00;99.90;;;;;;5064281;28;20040;-75
2021/11/10 07:04:11;;;;;;;12.93;8.40;;;3.00;99.90;;;;;;5066616;28;20503;-78
2021/11/10 07:06:38;;;;;;;14.77;8.37;;;3.00;99.90;;;;;;5029565;28;20409;-76
2021/11/10 07:09:08;;;;;;;13.93;7.77;;;3.00;99.90;;;;;;5029210;28;20043;-77
2021/11/10 07:11:35;;;;;;;13.63;8.50;;;3.10;99.90;;;;;;5029679;28;20048;-76
2021/11/10 07:14:06;;;;;;;14.88;8.77;;;3.00;99.90;;;;;;5045382;28;20041;-76
2021/11/10 07:16:34;;;;;;;15.87;9.23;;;3.10;99.90;;;;;;5045254;28;20068;-76
2021/11/10 07:19:01;;;;;;;16.57;10.10;;;3.10;99.90;;;;;;5045640;28;20427;-75
2021/11/10 07:21:28;;;;;;;17.90;9.80;;;3.10;99.90;;;;;;5042836;28;20036;-75
2021/11/10 07:23:55;;;;;;;15.30;8.60;;;3.10;99.90;;;;;;5045019;28;20396;-77
2021/11/10 07:26:21;;;;;;;14.60;8.60;;;3.20;99.90;;;;;;5060999;28;20029;-76
2021/11/10 07:28:48;;;;;;;12.63;8.63;;;3.20;99.90;;;;;;5031055;28;20121;-75
2021/11/10 07:31:14;;;;;;;11.20;7.30;;;3.30;99.90;;;;;;5014560;28;20396;-76
2021/11/10 07:33:41;;;;;;;13.13;7.67;;;3.30;99.90;;;;;;5043134;28;20029;-77
2021/11/10 07:36:07;;;;;;;13.10;7.60;;;3.40;99.90;;;;;;5020557;28;20048;-76
2021/11/10 07:38:39;;;;;;;16.70;8.77;;;3.40;99.90;;;;;;5014870;28;20041;-77
2021/11/10 07:41:07;;;;;;;18.77;9.15;;;3.40;99.90;;;;;;5030642;28;20028;-76
2021/11/10 07:43:34;;;;;;;14.97;9.10;;;3.50;99.90;;;;;;5013960;28;20048;-76
2021/11/10 07:46:12;;;;;;;13.37;8.67;;;3.50;99.90;;;;;;5019431;28;20077;-77
2021/11/10 07:48:41;;;;;;;17.43;8.67;;;3.50;99.90;;;;;;5042651;28;20037;-77
2021/11/10 07:51:07;;;;;;;14.47;8.87;;;3.50;99.90;;;;;;5061705;28;20040;-77
2021/11/10 07:53:34;;;;;;;17.07;10.67;;;3.60;99.90;;;;;;5026119;28;20035;-76
2021/11/10 07:56:01;;;;;;;17.73;10.83;;;3.70;99.90;;;;;;5025653;28;20033;-76
2021/11/10 07:58:28;;;;;;;20.30;11.23;;;3.80;99.90;;;;;;5059523;28;20058;-77
2021/11/10 08:00:55;;;;;;;18.67;10.30;;;3.90;99.90;;;;;;5031657;28;20025;-76
2021/11/10 08:03:21;;;;;;;17.70;9.87;;;4.00;99.90;;;;;;5045973;28;20420;-77
2021/11/10 08:05:49;;;;;;;20.20;10.20;;;4.20;99.90;;;;;;5023859;28;20044;-76
2021/11/10 08:08:15;;;;;;;18.67;10.70;;;4.30;99.90;;;;;;5044898;28;20052;-77
2021/11/10 08:10:43;;;;;;;18.13;10.33;;;4.50;99.90;;;;;;5044508;28;20032;-77
2021/11/10 08:13:10;;;;;;;17.50;10.40;;;4.70;99.90;;;;;;5045941;28;20392;-77
2021/11/10 08:15:36;;;;;;;18.23;10.60;;;4.90;99.90;;;;;;5031911;28;20041;-77
2021/11/10 08:18:03;;;;;;;17.77;10.00;;;5.00;99.90;;;;;;5055206;28;20029;-77
2021/11/10 08:20:30;;;;;;;14.88;9.57;;;5.20;99.90;;;;;;5021526;28;20036;-83
2021/11/10 08:22:57;;;;;;;16.52;9.95;;;5.30;99.90;;;;;;5029153;28;20040;-76
2021/11/10 08:25:23;;;;;;;17.67;9.63;;;5.40;99.90;;;;;;5062907;28;20045;-76
2021/11/10 08:27:51;;;;;;;14.30;9.13;;;5.50;99.90;;;;;;5045710;28;20036;-76
2021/11/10 08:30:19;;;;;;;15.85;10.18;;;5.50;99.90;;;;;;5036271;28;20052;-76
2021/11/10 08:32:46;;;;;;;14.27;9.35;;;5.60;99.90;;;;;;5053253;28;20033;-74
2021/11/10 08:35:15;;;;;;;16.60;9.65;;;5.60;99.90;;;;;;5046014;28;20396;-76
2021/11/10 08:37:41;;;;;;;19.15;10.98;;;5.60;99.90;;;;;;5045978;28;20396;-76
2021/11/10 08:40:09;;;;;;;16.20;10.73;;;5.70;99.90;;;;;;5038979;28;20056;-74
2021/11/10 08:42:37;;;;;;;18.43;9.63;;;5.70;99.90;;;;;;5058474;28;20033;-74
2021/11/10 08:45:10;;;;;;;15.05;9.15;;;5.80;99.90;;;;;;5037862;28;20480;-76
2021/11/10 08:47:38;;;;;;;18.15;9.80;;;5.80;99.90;;;;;;5009495;28;20040;-76
2021/11/10 08:50:08;;;;;;;16.73;10.55;;;5.90;99.90;;;;;;5015094;28;20062;-76
2021/11/10 08:52:36;;;;;;;19.70;9.90;;;6.00;99.90;;;;;;5029999;28;20043;-75
2021/11/10 08:55:05;;;;;;;19.08;10.15;;;6.00;99.90;;;;;;5044748;28;20051;-75
2021/11/10 08:57:33;;;;;;;14.13;8.95;;;6.10;99.90;;;;;;5038507;28;20036;-76
2021/11/10 08:59:59;;;;;;;17.52;9.48;;;6.20;99.90;;;;;;5047179;28;20501;-75
2021/11/10 09:02:26;;;;;;;17.80;9.88;;;6.30;99.90;;;;;;5061596;28;20036;-76
2021/11/10 09:04:52;;;;;;;14.57;8.13;;;6.40;99.90;;;;;;5036837;28;20369;-76
2021/11/10 09:07:18;;;;;;;13.65;8.13;;;6.50;99.90;;;;;;5048436;28;20028;-75
2021/11/10 09:09:45;;;;;;;16.33;8.27;;;6.60;99.90;;;;;;5052256;28;20028;-75
2021/11/10 09:12:11;;;;;;;14.85;7.38;;;6.80;99.90;;;;;;5050467;28;20032;-76
2021/11/10 09:14:38;;;;;;;12.45;7.55;;;6.80;99.90;;;;;;5027987;28;20505;-77
2021/11/10 09:17:08;;;;;;;18.60;8.52;;;6.90;99.90;;;;;;5047673;28;21319;-76
2021/11/10 09:19:35;;;;;;;14.77;8.48;;;7.00;99.90;;;;;;5065643;28;20047;-77
2021/11/10 09:22:02;;;;;;;13.88;7.88;;;7.10;99.90;;;;;;5049172;28;20041;-76
2021/11/10 09:24:28;;;;;;;10.63;6.88;;;7.20;99.90;;;;;;5047739;28;20052;-77
2021/11/10 09:26:55;;;;;;;14.77;7.88;;;7.30;99.90;;;;;;5065892;28;20094;-76
2021/11/10 09:29:21;;;;;;;20.85;10.07;;;7.40;99.90;;;;;;5072673;28;20055;-76
2021/11/10 09:31:49;;;;;;;16.58;9.68;;;7.50;99.90;;;;;;5033445;28;20527;-75
2021/11/10 09:34:15;;;;;;;21.17;11.13;;;7.60;99.90;;;;;;5047627;28;20032;-76
2021/11/10 09:36:49;;;;;;;22.20;11.55;;;7.70;99.90;;;;;;5063213;28;20029;-76
2021/11/10 09:39:17;;;;;;;23.70;11.82;;;7.90;99.90;;;;;;5008939;28;20040;-77
2021/11/10 09:41:48;;;;;;;18.23;9.73;;;8.10;99.90;;;;;;5045301;28;20041;-76
2021/11/10 09:44:15;;;;;;;18.83;10.07;;;8.40;99.90;;;;;;5015975;28;20029;-76
2021/11/10 09:46:42;;;;;;;16.08;9.25;;;8.70;99.90;;;;;;5018764;28;20044;-76
2021/11/10 09:49:12;;;;;;;20.80;8.93;;;8.90;99.90;;;;;;5047023;28;20035;-78
2021/11/10 09:51:40;;;;;;;16.90;7.53;;;9.10;99.90;;;;;;5032909;28;20032;-76
2021/11/10 09:54:07;;;;;;;17.50;8.82;;;9.30;99.90;;;;;;5031431;28;20045;-78
2021/11/10 09:56:34;;;;;;;13.60;6.65;;;9.50;99.90;;;;;;5032694;28;20033;-77
2021/11/10 09:59:03;;;;;;;14.48;6.97;;;9.90;99.90;;;;;;5036427;28;20025;-78
2021/11/10 10:01:32;;;;;;;13.90;7.00;;;10.20;99.90;;;;;;5051383;28;20029;-77
2021/11/10 10:03:59;;;;;;;14.23;6.15;;;10.50;99.90;;;;;;5048885;28;20041;-77
2021/11/10 10:06:27;;;;;;;13.40;6.70;;;10.70;99.90;;;;;;5067699;28;20041;-77
2021/11/10 10:08:53;;;;;;;16.40;6.55;;;11.00;99.90;;;;;;5036887;28;20042;-76
2021/11/10 10:11:20;;;;;;;14.77;6.70;;;11.20;99.90;;;;;;5050403;28;20029;-77
2021/11/10 10:13:47;;;;;;;10.77;5.68;;;11.50;99.90;;;;;;5048097;28;20522;-77
2021/11/10 10:16:23;;;;;;;12.65;5.78;;;11.80;99.90;;;;;;5030606;28;20041;-77
2021/11/10 10:18:50;;;;;;;21.27;8.23;;;11.90;99.90;;;;;;5048238;28;20044;-77
2021/11/10 10:21:19;;;;;;;14.45;7.18;;;12.00;99.90;;;;;;5051888;28;20021;-78
2021/11/10 10:23:50;;;;;;;13.45;6.55;;;12.10;99.90;;;;;;5048412;28;20028;-77
2021/11/10 10:26:22;;;;;;;15.60;6.00;;;12.30;99.90;;;;;;5018784;28;20048;-76
2021/11/10 10:28:52;;;;;;;13.82;5.47;;;12.60;99.90;;;;;;5015463;28;20025;-78
2021/11/10 10:31:27;;;;;;;11.30;5.60;;;12.90;99.90;;;;;;5050266;28;20033;-77
2021/11/10 10:34:17;;;;;;;9.15;4.80;;;13.20;99.90;;;;;;5046151;28;20696;-77
2021/11/10 10:36:45;;;;;;;11.45;5.75;;;13.40;99.90;;;;;;5047454;28;20033;-77
2021/11/10 10:39:17;;;;;;;12.57;5.18;;;13.70;99.90;;;;;;5046242;28;20491;-77
2021/11/10 10:41:46;;;;;;;12.15;5.97;;;13.90;99.90;;;;;;5049146;28;20047;-77
2021/11/10 10:44:15;;;;;;;10.68;5.63;;;14.00;99.90;;;;;;5044316;28;20029;-77
2021/11/10 10:46:47;;;;;;;12.82;6.28;;;13.90;99.90;;;;;;5046093;28;20041;-78
2021/11/10 10:49:30;;;;;;;13.57;5.90;;;13.60;99.90;;;;;;5033602;28;20100;-77
2021/11/10 10:52:19;;;;;;;12.18;5.53;;;13.20;99.90;;;;;;5029715;28;20039;-76
2021/11/10 10:54:50;;;;;;;12.52;5.85;;;12.90;99.90;;;;;;5046410;28;20044;-76
2021/11/10 10:57:19;;;;;;;10.35;5.75;;;12.60;99.90;;;;;;5049464;28;20048;-77
2021/11/10 10:59:46;;;;;;;12.13;5.65;;;12.50;99.90;;;;;;5048523;28;20112;-77
2021/11/10 11:02:12;;;;;;;11.05;5.90;;;12.30;99.90;;;;;;5023015;28;20038;-77
2021/11/10 11:04:44;;;;;;;11.32;5.55;;;12.20;99.90;;;;;;5045030;28;20032;-76
2021/11/10 11:07:11;;;;;;;12.27;6.03;;;12.20;99.90;;;;;;5038975;28;20045;-76
2021/11/10 11:09:42;;;;;;;12.00;5.72;;;12.10;99.90;;;;;;5029831;28;20512;-77
2021/11/10 11:12:16;;;;;;;11.40;5.20;;;12.00;99.90;;;;;;5048669;28;20029;-77
2021/11/10 11:14:52;;;;;;;10.52;5.38;;;11.90;99.90;;;;;;5021878;28;20040;-77
2021/11/10 11:17:18;;;;;;;12.40;6.00;;;11.90;99.90;;;;;;5038915;28;20063;-77
2021/11/10 11:19:51;;;;;;;12.55;6.10;;;11.90;99.90;;;;;;5028808;28;20044;-77
2021/11/10 11:22:18;;;;;;;10.15;5.88;;;11.90;99.90;;;;;;5025460;28;20036;-77
2021/11/10 11:24:45;;;;;;;14.57;5.53;;;11.90;99.90;;;;;;5042884;28;20044;-78
2021/11/10 11:27:22;;;;;;;18.55;11.80;;;11.90;99.90;;;;;;5050431;28;20029;-77
2021/11/10 11:29:54;;;;;;;21.27;11.13;;;11.90;99.90;;;;;;5013395;28;20028;-78
2021/11/10 11:32:32;;;;;;;15.50;9.30;;;12.00;99.90;;;;;;5033977;28;20052;-78
2021/11/10 11:35:04;;;;;;;15.48;8.60;;;11.80;99.90;;;;;;5038372;28;20052;-78
2021/11/10 11:37:32;;;;;;;13.85;7.18;;;11.80;99.90;;;;;;5047792;28;20037;-77
2021/11/10 11:40:06;;;;;;;14.57;6.97;;;11.70;99.90;;;;;;5031641;28;20464;-80
2021/11/10 11:42:32;;;;;;;13.45;5.97;;;11.60;99.90;;;;;;5064339;28;20024;-77
2021/11/10 11:44:59;;;;;;;13.10;7.00;;;11.50;99.90;;;;;;5049515;28;20044;-77
2021/11/10 11:47:26;;;;;;;10.80;6.72;;;11.50;99.90;;;;;;5017831;28;20391;-78
2021/11/10 11:49:54;;;;;;;11.15;5.68;;;11.40;99.90;;;;;;5050834;28;20536;-76
2021/11/10 11:52:28;;;;;;;18.70;10.88;;;11.40;99.90;;;;;;5045932;28;20348;-78
2021/11/10 11:54:57;;;;;;;13.40;8.02;;;11.40;99.90;;;;;;5064694;28;20032;-77
2021/11/10 11:57:25;;;;;;;15.13;8.30;;;11.50;99.90;;;;;;5066720;28;20077;-77
2021/11/10 11:59:54;;;;;;;15.82;8.05;;;11.50;99.90;;;;;;5057639;28;20044;-77
2021/11/10 12:02:36;;;;;;;15.48;6.32;;;11.50;99.90;;;;;;5063548;28;20024;-76
2021/11/10 12:05:13;;;;;;;18.83;7.70;;;11.50;99.90;;;;;;5027120;28;20033;-77
2021/11/10 12:07:46;;;;;;;19.65;9.43;;;11.50;99.90;;;;;;5031047;28;20051;-77
2021/11/10 12:10:21;;;;;;;25.02;14.15;;;11.50;99.90;;;;;;5031853;28;20033;-77
2021/11/10 12:13:21;;;;;;;17.15;9.80;;;11.60;99.90;;;;;;5048556;28;20681;-77
2021/11/10 12:15:57;;;;;;;16.02;8.18;;;11.90;99.90;;;;;;5027952;28;20032;-77
2021/11/10 12:18:23;;;;;;;27.38;14.38;;;12.00;99.90;;;;;;5036381;28;20492;-77
2021/11/10 12:21:01;;;;;;;23.65;12.65;;;12.10;99.90;;;;;;5055904;28;20033;-76
2021/11/10 12:23:52;;;;;;;16.95;10.38;;;12.30;99.90;;;;;;5029532;28;20025;-77
2021/11/10 12:26:20;;;;;;;16.65;8.98;;;12.40;99.90;;;;;;5024765;28;20063;-77
2021/11/10 12:28:55;;;;;;;13.80;8.10;;;12.50;99.90;;;;;;5034896;28;20025;-77
2021/11/10 12:31:34;;;;;;;16.48;7.55;;;12.60;99.90;;;;;;5045637;28;20032;-76
2021/11/10 12:34:22;;;;;;;13.70;7.07;;;12.60;99.90;;;;;;5046801;28;20045;-77
2021/11/10 12:36:54;;;;;;;13.15;6.65;;;12.80;99.90;;;;;;5029046;28;20053;-79
2021/11/10 12:39:47;;;;;;;14.52;6.47;;;12.80;99.90;;;;;;5031740;28;20514;-79
2021/11/10 12:42:17;;;;;;;15.68;7.13;;;12.90;99.90;;;;;;5029018;28;20049;-79
2021/11/10 12:44:49;;;;;;;10.63;6.57;;;12.90;99.90;;;;;;5063597;28;20479;-79
2021/11/10 12:47:36;;;;;;;12.80;7.38;;;12.90;99.90;;;;;;5043225;28;20059;-79
2021/11/10 12:50:49;;;;;;;11.60;6.75;;;13.00;99.90;;;;;;5057955;28;20028;-79
2021/11/10 12:53:34;;;;;;;11.48;6.22;;;13.00;99.90;;;;;;4997419;28;20039;-79
2021/11/10 12:56:01;;;;;;;14.75;6.40;;;12.90;99.90;;;;;;5012338;28;20507;-78